Time;durP1;ratioP1;P1;durP2;ratioP2;P2;SDS_P1;SDS_P2;PMS_P1;PMS_P2;Temp;Humidity;BMP_temperature;BMP_pressure;BME280_temperature;BME280_humidity;BME280_pressure;Samples;Min_cycle;Max_cycle;Signal;HPM_P1;HPM_P2
2021/06/18 00:01:17;;;;;;;;;;;;;;;21.79;43.80;100744.81;3527019;28;20069;-78
2021/06/18 00:02:57;;;;;;;7.20;3.08;;;;;;;21.70;43.93;100741.66;3526367;28;20294;-80
2021/06/18 00:04:38;;;;;;;17.27;6.90;;;;;;;21.70;43.92;100749.78;3525980;28;20032;-80
2021/06/18 00:06:19;;;;;;;32.67;22.60;;;;;;;21.69;44.11;100755.47;3525504;28;20039;-79
2021/06/18 00:08:00;;;;;;;45.10;26.87;;;;;;;21.67;44.11;100753.00;3526135;28;20047;-80
2021/06/18 00:09:40;;;;;;;17.10;12.93;;;;;;;21.65;44.27;100754.31;3526165;28;20084;-79
2021/06/18 00:11:21;;;;;;;19.48;7.70;;;;;;;21.62;44.22;100761.03;3526565;28;20115;-78
2021/06/18 00:13:02;;;;;;;15.33;5.47;;;;;;;21.60;44.60;100752.31;3526910;28;20046;-79
2021/06/18 00:14:43;;;;;;;12.57;4.40;;;;;;;21.57;44.39;100750.09;3526565;28;20066;-78
2021/06/18 00:16:24;;;;;;;15.97;6.33;;;;;;;21.55;44.46;100752.22;3525013;28;20444;-79
2021/06/18 00:18:05;;;;;;;13.27;6.00;;;;;;;21.57;44.65;100766.38;3527086;28;20039;-80
2021/06/18 00:19:46;;;;;;;17.85;7.03;;;;;;;21.54;44.43;100764.97;3526359;28;20040;-79
2021/06/18 00:21:27;;;;;;;22.77;7.40;;;;;;;21.55;44.52;100772.03;3529565;28;20031;-77
2021/06/18 00:23:07;;;;;;;22.57;6.90;;;;;;;21.52;44.40;100764.38;3535788;28;20284;-78
2021/06/18 00:24:48;;;;;;;17.60;6.87;;;;;;;21.51;44.77;100761.91;3535631;28;20066;-79
2021/06/18 00:26:29;;;;;;;10.55;5.25;;;;;;;21.50;45.05;100762.97;3534317;28;20494;-80
2021/06/18 00:28:13;;;;;;;17.10;6.57;;;;;;;21.47;45.22;100771.59;3531036;28;20063;-78
2021/06/18 00:29:53;;;;;;;20.95;7.57;;;;;;;21.46;45.05;100772.66;3529764;27;20047;-78
2021/06/18 00:31:34;;;;;;;25.53;7.83;;;;;;;21.44;45.22;100774.78;3529728;28;20122;-78
2021/06/18 00:33:15;;;;;;;18.93;7.10;;;;;;;21.43;45.68;100768.53;3543864;27;20050;-78
2021/06/18 00:34:56;;;;;;;18.53;9.20;;;;;;;21.41;45.55;100775.28;3529436;27;20118;-78
2021/06/18 00:36:36;;;;;;;26.10;9.63;;;;;;;21.38;45.77;100764.88;3526262;28;20422;-78
2021/06/18 00:38:17;;;;;;;26.88;11.60;;;;;;;21.37;45.52;100774.88;3528834;28;20055;-79
2021/06/18 00:39:58;;;;;;;29.97;11.20;;;;;;;21.36;45.59;100770.53;3540318;27;20035;-79
2021/06/18 00:41:39;;;;;;;33.17;12.40;;;;;;;21.35;45.51;100775.13;3536099;27;20388;-78
2021/06/18 00:43:20;;;;;;;29.07;12.63;;;;;;;21.32;45.72;100778.31;3538920;27;20043;-80
2021/06/18 00:45:01;;;;;;;33.60;12.63;;;;;;;21.33;45.76;100779.16;3537813;28;20046;-79
2021/06/18 00:46:44;;;;;;;27.88;12.93;;;;;;;21.34;45.78;100786.22;3539636;28;20042;-79
2021/06/18 00:48:25;;;;;;;30.08;13.45;;;;;;;21.32;45.66;100778.31;3501904;28;20033;-80
2021/06/18 00:50:07;;;;;;;36.05;15.35;;;;;;;21.29;46.08;100781.50;3520068;28;20613;-80
2021/06/18 00:51:48;;;;;;;30.73;14.80;;;;;;;21.28;46.12;100774.44;3524693;28;20605;-80
2021/06/18 00:53:29;;;;;;;35.10;16.38;;;;;;;21.27;45.89;100780.94;3522378;28;20039;-79
2021/06/18 00:55:11;;;;;;;;;;;;;;;21.32;45.85;100778.31;3525847;28;20074;-80
2021/06/18 00:56:52;;;;;;;38.67;15.75;;;;;;;21.27;45.75;100778.22;3525335;28;20318;-80
2021/06/18 00:58:33;;;;;;;36.37;16.50;;;;;;;21.24;46.12;100780.56;3508911;28;20039;-81
2021/06/18 01:00:14;;;;;;;38.43;16.53;;;;;;;21.21;45.84;100781.88;3522217;28;20172;-80
2021/06/18 01:01:55;;;;;;;40.00;17.75;;;;;;;21.24;46.06;100783.28;3525403;28;20552;-79
2021/06/18 01:03:36;;;;;;;39.20;19.05;;;;;;;21.22;45.83;100788.94;3525430;28;20113;-80
2021/06/18 01:05:18;;;;;;;38.42;17.05;;;;;;;21.21;45.61;100787.28;3524979;28;20040;-78
2021/06/18 01:07:10;;;;;;;;;;;;;;;21.28;45.72;100789.88;3524609;28;20394;-79
2021/06/18 01:09:00;;;;;;;32.95;15.93;;;;;;;21.29;45.94;100783.38;3525286;28;19980;-79
2021/06/18 01:10:50;;;;;;;40.85;15.10;;;;;;;21.30;45.38;100791.28;3525136;28;20176;-80
2021/06/18 01:12:36;;;;;;;34.42;15.77;;;;;;;21.30;46.21;100788.59;3524626;28;20043;-78
2021/06/18 01:15:18;;;;;;;32.38;15.88;;;;;;;21.35;45.78;100782.44;3525278;28;20079;-78
2021/06/18 01:17:31;;;;;;;43.97;16.92;;;;;;;21.34;46.01;100787.03;3467614;28;20053;-82
2021/06/18 01:19:32;;;;;;;;;;;;;;;21.34;45.64;100789.72;3476551;28;20056;-81
2021/06/18 01:21:21;;;;;;;30.08;12.93;;;;;;;21.28;45.52;100792.59;3483850;28;19920;-82
2021/06/18 01:23:02;;;;;;;23.65;12.00;;;;;;;21.27;45.34;100783.63;3524113;28;20662;-81
2021/06/18 01:25:12;;;;;;;27.02;10.63;;;;;;;21.28;45.33;100785.28;3507404;28;20032;-81
2021/06/18 01:27:30;;;;;;;25.08;10.50;;;;;;;21.31;45.39;100781.25;3525161;28;20482;-81
2021/06/18 01:29:11;;;;;;;31.92;12.43;;;;;;;21.28;45.54;100787.16;3525397;28;20051;-82
2021/06/18 01:30:52;;;;;;;29.42;13.77;;;;;;;21.30;45.53;100791.28;3524151;28;20065;-81
2021/06/18 01:32:38;;;;;;;28.50;12.53;;;;;;;21.29;45.36;100783.38;3521255;28;20032;-81
2021/06/18 01:34:24;;;;;;;33.55;14.45;;;;;;;21.30;45.43;100791.28;3524448;28;20046;-80
2021/06/18 01:36:06;;;;;;;36.95;15.68;;;;;;;21.31;45.81;100792.94;3523899;28;20118;-79
2021/06/18 01:37:49;;;;;;;37.95;15.32;;;;;;;21.28;45.80;100790.69;3521132;28;20051;-80
2021/06/18 01:39:32;;;;;;;33.05;14.10;;;;;;;21.30;46.04;100790.47;3524649;28;20478;-80
2021/06/18 01:41:16;;;;;;;34.67;13.85;;;;;;;21.31;46.35;100792.94;3510084;28;20418;-79
2021/06/18 01:42:58;;;;;;;33.22;13.15;;;;;;;21.31;46.26;100802.97;3522394;28;20043;-79
2021/06/18 01:44:39;;;;;;;;;;;;;;;21.38;46.00;100809.13;3525052;28;20039;-81
2021/06/18 01:46:23;;;;;;;33.00;11.70;;;;;;;21.33;46.40;100801.66;3509579;28;19911;-81
2021/06/18 01:48:05;;;;;;;35.40;13.32;;;;;;;21.32;46.84;100800.03;3518775;28;20035;-81
2021/06/18 01:49:46;;;;;;;28.80;12.15;;;;;;;21.32;46.77;100805.44;3520531;28;20035;-80
2021/06/18 01:51:28;;;;;;;34.85;12.38;;;;;;;21.33;46.79;100801.66;3520948;28;20110;-80
2021/06/18 01:53:11;;;;;;;;;;;;;;;21.42;46.36;100812.97;3521682;28;20122;-79
2021/06/18 01:54:52;;;;;;;29.17;11.07;;;;;;;21.36;46.68;100805.78;3524469;28;19997;-81
2021/06/18 01:56:37;;;;;;;22.85;10.82;;;;;;;21.36;47.19;100811.22;3510104;28;20112;-80
2021/06/18 01:58:19;;;;;;;23.80;10.55;;;;;;;21.43;46.99;100811.13;3507716;28;20052;-79
2021/06/18 02:00:00;;;;;;;20.77;9.05;;;;;;;21.48;46.88;100809.34;3517995;28;20088;-79
2021/06/18 02:01:44;;;;;;;20.40;9.27;;;;;;;21.54;47.05;100812.97;3521096;28;20066;-79
2021/06/18 02:03:27;;;;;;;25.65;11.27;;;;;;;21.53;47.22;100804.00;3506418;28;20517;-80
2021/06/18 02:05:08;;;;;;;28.98;11.30;;;;;;;21.68;47.03;100814.34;3504128;28;20081;-81
2021/06/18 02:06:49;;;;;;;25.70;12.23;;;;;;;21.74;47.25;100813.38;3506976;28;20047;-80
2021/06/18 02:08:31;;;;;;;23.08;12.23;;;;;;;21.81;47.10;100812.41;3521237;28;20031;-81
2021/06/18 02:10:12;;;;;;;26.30;12.30;;;;;;;21.84;46.83;100818.19;3509348;28;20036;-81
2021/06/18 02:11:54;;;;;;;30.25;12.68;;;;;;;21.87;46.78;100806.03;3510119;28;20040;-79
2021/06/18 02:13:35;;;;;;;;;;;;;;;21.95;46.42;100814.59;3511123;28;20039;-81
2021/06/18 02:15:17;;;;;;;26.92;10.23;;;;;;;21.96;48.10;100812.72;3509332;28;20330;-74
2021/06/18 02:17:00;;;;;;;22.98;11.32;;;;;;;22.09;48.65;100820.56;3498951;28;20579;-74
2021/06/18 02:18:42;;;;;;;23.15;12.05;;;;;;;22.21;48.33;100828.69;3522094;28;20126;-76
2021/06/18 02:20:23;;;;;;;23.05;11.23;;;;;;;22.30;48.44;100826.41;3522528;28;20124;-76
2021/06/18 02:22:07;;;;;;;26.37;12.27;;;;;;;22.42;47.96;100836.13;3520490;28;20048;-76
2021/06/18 02:23:48;;;;;;;30.85;13.15;;;;;;;22.49;48.03;100829.72;3520981;28;20087;-76
2021/06/18 02:25:32;;;;;;;30.37;12.27;;;;;;;22.54;47.90;100830.63;3521209;28;20108;-76
2021/06/18 02:27:14;;;;;;;27.05;11.45;;;;;;;22.58;47.71;100830.97;3525171;28;20071;-75
2021/06/18 02:28:55;;;;;;;31.77;12.23;;;;;;;22.65;47.75;100846.03;3523251;28;20506;-75
2021/06/18 02:30:36;;;;;;;26.33;12.73;;;;;;;22.69;47.52;100840.09;3523595;28;20070;-75
2021/06/18 02:32:18;;;;;;;35.53;15.37;;;;;;;22.71;47.16;100846.13;3522811;28;20503;-76
2021/06/18 02:33:58;;;;;;;27.35;14.02;;;;;;;22.70;47.18;100847.19;3523791;28;20054;-74
2021/06/18 02:35:40;;;;;;;32.23;14.20;;;;;;;22.72;46.95;100855.91;3524004;28;20542;-76
2021/06/18 02:37:21;;;;;;;29.35;13.45;;;;;;;22.71;46.92;100857.00;3522756;28;20144;-77
2021/06/18 02:39:01;;;;;;;27.57;14.23;;;;;;;22.68;46.89;100855.59;3524066;28;20051;-77
2021/06/18 02:40:43;;;;;;;30.20;13.17;;;;;;;22.69;47.15;100862.69;3525970;28;20036;-77
2021/06/18 02:42:25;;;;;;;26.38;12.00;;;;;;;22.70;47.00;100868.94;3526839;28;20470;-76
2021/06/18 02:44:06;;;;;;;26.95;13.05;;;;;;;22.76;47.31;100862.50;3526847;28;20459;-75
2021/06/18 02:45:47;;;;;;;26.27;12.67;;;;;;;22.79;47.40;100862.00;3526480;28;20080;-75
2021/06/18 02:47:45;;;;;;;25.00;12.57;;;;;;;22.88;46.40;100860.53;3526550;28;20533;-75
2021/06/18 02:49:58;;;;;;;25.70;12.05;;;;;;;22.97;47.17;100874.56;3525412;28;20046;-74
2021/06/18 02:51:41;;;;;;;26.52;11.57;;;;;;;22.99;47.00;100865.09;3492380;28;20070;-77
2021/06/18 02:53:35;;;;;;;41.20;27.65;;;;;;;23.03;46.25;100866.25;3526631;28;20061;-75
2021/06/18 02:55:19;;;;;;;42.20;26.08;;;;;;;23.01;46.23;100865.66;3511681;28;20213;-76
2021/06/18 02:57:09;;;;;;;37.47;20.80;;;;;;;22.99;46.08;100870.53;3507066;28;20059;-76
2021/06/18 02:58:50;;;;;;;35.20;15.23;;;;;;;22.97;46.18;100877.28;3508717;28;20110;-76
2021/06/18 03:00:31;;;;;;;35.77;14.53;;;;;;;22.93;45.96;100871.50;3520110;28;20445;-77
2021/06/18 03:02:16;;;;;;;28.58;13.63;;;;;;;22.95;45.83;100876.66;3508921;28;20533;-76
2021/06/18 03:04:00;;;;;;;33.15;15.48;;;;;;;22.98;46.75;100876.22;3521234;28;20043;-77
2021/06/18 03:05:42;;;;;;;35.15;17.10;;;;;;;23.00;46.48;100877.63;3523364;28;20123;-76
2021/06/18 03:07:29;;;;;;;27.80;13.15;;;;;;;23.07;45.97;100875.53;3522884;28;20587;-77
2021/06/18 03:09:10;;;;;;;24.27;12.13;;;;;;;23.11;46.00;100877.78;3526304;28;20976;-76
2021/06/18 03:10:53;;;;;;;23.35;11.35;;;;;;;23.11;45.37;100875.06;3525579;28;20046;-76
2021/06/18 03:12:38;;;;;;;20.23;10.43;;;;;;;23.09;45.72;100864.44;3525467;28;20494;-75
2021/06/18 03:14:21;;;;;;;23.17;9.40;;;;;;;23.08;45.33;100863.63;3522849;28;20502;-75
2021/06/18 03:16:02;;;;;;;22.50;10.82;;;;;;;23.12;45.84;100871.28;3508955;28;20036;-76
2021/06/18 03:17:44;;;;;;;25.35;14.02;;;;;;;23.14;45.83;100867.22;3520009;28;20058;-76
2021/06/18 03:19:32;;;;;;;28.48;14.80;;;;;;;23.20;45.96;100865.41;3522739;28;20047;-75
2021/06/18 03:21:14;;;;;;;22.00;11.63;;;;;;;23.22;45.57;100860.53;3523961;28;20552;-76
2021/06/18 03:22:58;;;;;;;24.50;10.30;;;;;;;23.20;45.38;100857.25;3526024;28;20093;-74
2021/06/18 03:24:39;;;;;;;17.88;9.88;;;;;;;23.24;45.54;100859.22;3526457;28;20048;-73
2021/06/18 03:26:20;;;;;;;19.88;9.10;;;;;;;23.28;45.11;100854.09;3525346;28;20039;-76
2021/06/18 03:28:02;;;;;;;19.67;9.70;;;;;;;23.29;45.29;100856.56;3526142;28;20645;-74
2021/06/18 03:29:42;;;;;;;20.85;11.00;;;;;;;23.37;45.89;100860.75;3525219;28;20467;-74
2021/06/18 03:31:24;;;;;;;21.80;11.37;;;;;;;23.46;45.84;100856.50;3526089;28;20074;-74
2021/06/18 03:33:06;;;;;;;20.20;10.05;;;;;;;23.53;45.73;100864.50;3525583;28;20044;-74
2021/06/18 03:34:47;;;;;;;17.85;8.23;;;;;;;23.58;45.27;100869.22;3524695;28;20458;-75
2021/06/18 03:36:29;;;;;;;25.40;6.80;;;;;;;23.59;44.52;100860.78;3522445;28;20059;-77
2021/06/18 03:38:09;;;;;;;26.23;8.77;;;;;;;23.66;45.33;100860.59;3522229;28;20086;-75
2021/06/18 03:39:50;;;;;;;24.53;8.80;;;;;;;23.72;45.44;100860.44;3522411;28;20040;-76
2021/06/18 03:41:32;;;;;;;12.77;6.43;;;;;;;23.74;44.86;100873.78;3508351;28;20032;-76
2021/06/18 03:43:13;;;;;;;14.43;6.55;;;;;;;23.71;44.69;100871.56;3505748;28;20297;-75
2021/06/18 03:44:54;;;;;;;10.48;5.53;;;;;;;23.72;44.15;100875.94;3523337;28;20077;-76
2021/06/18 03:46:35;;;;;;;10.75;5.45;;;;;;;23.68;43.95;100869.34;3525238;28;20039;-75
2021/06/18 03:48:17;;;;;;;13.63;5.10;;;;;;;23.64;43.58;100874.44;3522749;28;20603;-74
2021/06/18 03:49:58;;;;;;;8.55;4.63;;;;;;;23.65;43.62;100869.84;3524678;28;20040;-76
2021/06/18 03:51:39;;;;;;;;;;;;;;;23.73;43.69;100877.59;3525919;28;20050;-74
2021/06/18 03:53:20;;;;;;;9.93;5.20;;;;;;;23.72;44.06;100874.06;3528536;28;20394;-77
2021/06/18 03:55:02;;;;;;;11.37;5.37;;;;;;;23.74;44.30;100873.78;3511306;28;20541;-76
2021/06/18 03:56:48;;;;;;;14.90;5.13;;;;;;;23.78;43.95;100879.56;3525184;28;20543;-78
2021/06/18 03:58:30;;;;;;;10.40;5.00;;;;;;;23.81;43.84;100882.59;3526484;28;20430;-76
2021/06/18 04:00:11;;;;;;;15.73;5.10;;;;;;;23.81;43.94;100879.88;3526238;28;20136;-76
2021/06/18 04:01:56;;;;;;;12.30;4.03;;;;;;;23.81;43.57;100877.16;3522843;28;20040;-76
2021/06/18 04:03:37;;;;;;;8.52;4.55;;;;;;;23.84;44.46;100879.38;3508642;28;20051;-76
2021/06/18 04:05:20;;;;;;;15.73;6.17;;;;;;;23.91;46.64;100888.16;3519050;28;20058;-76
2021/06/18 04:07:05;;;;;;;15.13;5.57;;;;;;;24.01;48.39;100886.63;3526170;28;20055;-77
2021/06/18 04:08:46;;;;;;;9.85;5.05;;;;;;;24.10;48.60;100885.94;3525834;28;20096;-77
2021/06/18 04:10:27;;;;;;;10.50;4.47;;;;;;;24.19;48.68;100886.31;3525662;28;20565;-78
2021/06/18 04:12:09;;;;;;;9.43;4.50;;;;;;;24.29;48.54;100886.44;3525801;28;20043;-77
2021/06/18 04:13:51;;;;;;;28.33;4.53;;;;;;;24.30;47.18;100888.06;3512245;28;20036;-76
2021/06/18 04:15:32;;;;;;;9.57;3.70;;;;;;;24.38;46.56;100894.97;3511236;28;20043;-78
2021/06/18 04:17:13;;;;;;;7.87;3.43;;;;;;;24.43;47.14;100900.47;3508141;28;20044;-78
2021/06/18 04:18:54;;;;;;;23.27;3.27;;;;;;;24.42;45.53;100895.25;3515933;28;20063;-79
2021/06/18 04:20:35;;;;;;;7.75;3.42;;;;;;;24.35;44.03;100893.56;3510953;28;20047;-79
2021/06/18 04:22:32;;;;;;;7.47;3.03;;;;;;;24.32;43.80;100896.81;3522739;28;20050;-78
2021/06/18 04:24:13;;;;;;;5.03;3.17;;;;;;;24.34;44.21;100896.53;3525977;28;20121;-76
2021/06/18 04:25:57;;;;;;;4.95;2.30;;;;;;;24.33;43.75;100895.72;3526126;28;20070;-76
2021/06/18 04:27:38;;;;;;;4.97;2.70;;;;;;;24.36;43.34;100897.94;3510727;28;20040;-76
2021/06/18 04:29:19;;;;;;;14.77;2.83;;;;;;;24.38;43.07;100901.22;3522942;28;20474;-76
2021/06/18 04:30:59;;;;;;;5.40;2.50;;;;;;;24.40;43.42;100892.00;3525832;28;20047;-76
2021/06/18 04:32:42;;;;;;;5.87;2.50;;;;;;;24.42;43.20;100896.09;3525083;27;20219;-77
2021/06/18 04:34:23;;;;;;;6.47;2.67;;;;;;;24.45;42.69;100900.25;3525844;28;20091;-77
2021/06/18 04:36:05;;;;;;;5.57;2.63;;;;;;;24.51;43.12;100893.75;3524774;28;20510;-79
2021/06/18 04:37:45;;;;;;;6.03;2.33;;;;;;;24.57;43.82;100895.44;3524383;28;20051;-75
2021/06/18 04:39:27;;;;;;;5.27;2.10;;;;;;;24.65;44.00;100888.69;3525178;28;20071;-76
2021/06/18 04:41:08;;;;;;;3.63;1.75;;;;;;;24.65;43.32;100894.97;3525947;28;20063;-76
2021/06/18 04:42:48;;;;;;;6.93;2.33;;;;;;;24.72;42.89;100897.50;3524192;28;20158;-75
2021/06/18 04:44:29;;;;;;;6.77;2.90;;;;;;;24.76;43.66;100904.91;3525299;28;20406;-76
2021/06/18 04:46:10;;;;;;;4.03;2.20;;;;;;;24.79;43.00;100907.09;3525331;28;20055;-75
2021/06/18 04:47:51;;;;;;;7.60;2.70;;;;;;;24.80;42.51;100906.00;3524658;27;20131;-76
2021/06/18 04:49:32;;;;;;;7.70;2.30;;;;;;;24.84;43.11;100902.78;3524832;28;20066;-74
2021/06/18 04:51:16;;;;;;;5.13;2.40;;;;;;;24.87;42.77;100907.72;3525304;28;20342;-77
2021/06/18 04:52:58;;;;;;;11.25;2.22;;;;;;;24.84;42.08;100910.97;3524952;28;20040;-76
2021/06/18 04:54:39;;;;;;;9.88;2.53;;;;;;;24.91;42.61;100915.13;3524920;28;20043;-76
2021/06/18 04:56:20;;;;;;;6.27;1.87;;;;;;;24.94;42.82;100916.50;3524784;28;20091;-77
2021/06/18 04:58:01;;;;;;;6.37;2.10;;;;;;;24.96;42.16;100911.59;3525143;28;20494;-76
2021/06/18 04:59:42;;;;;;;5.27;1.60;;;;;;;24.94;41.75;100906.41;3525784;28;20311;-76
2021/06/18 05:01:22;;;;;;;3.97;1.83;;;;;;;24.96;41.30;100912.44;3524013;28;20201;-76
2021/06/18 05:03:03;;;;;;;7.83;2.13;;;;;;;24.94;41.76;100917.31;3523203;28;20044;-77
2021/06/18 05:04:44;;;;;;;7.40;1.77;;;;;;;24.94;41.30;100913.78;3523367;28;20134;-74
2021/06/18 05:06:24;;;;;;;3.80;1.30;;;;;;;24.95;41.32;100904.50;3524430;28;20082;-75
2021/06/18 05:08:05;;;;;;;5.07;1.67;;;;;;;25.02;42.38;100913.31;3524981;28;20445;-77
2021/06/18 05:09:47;;;;;;;4.95;1.50;;;;;;;25.10;41.59;100912.81;3525136;28;20050;-74
2021/06/18 05:11:27;;;;;;;4.50;1.67;;;;;;;25.15;41.39;100906.56;3524491;28;20047;-76
2021/06/18 05:13:08;;;;;;;5.50;1.33;;;;;;;25.19;41.14;100916.72;3524227;28;20043;-76
2021/06/18 05:14:49;;;;;;;6.40;1.40;;;;;;;25.23;40.67;100917.84;3524641;28;20038;-75
2021/06/18 05:16:30;;;;;;;3.07;1.63;;;;;;;25.22;40.54;100899.00;3521035;28;20040;-76
2021/06/18 05:18:10;;;;;;;4.47;1.87;;;;;;;25.20;40.02;100906.66;3523414;28;20051;-74
2021/06/18 05:19:51;;;;;;;8.17;1.57;;;;;;;25.20;40.70;100907.47;3523657;28;20452;-73
2021/06/18 05:21:32;;;;;;;1.60;1.37;;;;;;;25.24;40.49;100907.75;3524417;28;20047;-78
2021/06/18 05:23:13;;;;;;;3.55;1.58;;;;;;;25.27;40.36;100906.41;3524433;28;20035;-76
2021/06/18 05:24:53;;;;;;;5.17;1.80;;;;;;;25.31;40.21;100907.53;3524126;28;20508;-77
2021/06/18 05:26:35;;;;;;;2.57;0.90;;;;;;;25.36;40.26;100897.47;3524783;28;20043;-79
2021/06/18 05:28:16;;;;;;;7.88;1.75;;;;;;;25.45;39.87;100900.50;3524643;28;20040;-77
2021/06/18 05:29:56;;;;;;;13.90;1.87;;;;;;;25.51;40.50;100891.28;3523996;28;20519;-76
2021/06/18 05:31:37;;;;;;;9.43;1.60;;;;;;;25.60;41.28;100892.41;3510135;28;20103;-76
2021/06/18 05:33:18;;;;;;;6.47;1.90;;;;;;;25.69;41.01;100898.19;3506773;28;20510;-74
2021/06/18 05:34:59;;;;;;;16.27;1.60;;;;;;;25.75;40.64;100896.31;3509835;28;20055;-73
2021/06/18 05:36:44;;;;;;;4.70;1.37;;;;;;;25.74;40.54;100900.97;3510119;28;20084;-76
2021/06/18 05:38:25;;;;;;;8.70;2.38;;;;;;;25.73;40.41;100893.84;3510013;28;20290;-78
2021/06/18 05:40:06;;;;;;;14.30;1.77;;;;;;;25.81;40.06;100897.97;3510237;28;20036;-77
2021/06/18 05:41:48;;;;;;;5.15;1.55;;;;;;;25.86;40.74;100896.09;3510156;28;20054;-76
2021/06/18 05:43:29;;;;;;;7.38;1.60;;;;;;;25.92;40.65;100896.97;3510007;28;20230;-77
2021/06/18 05:45:10;;;;;;;10.70;2.17;;;;;;;26.02;40.36;100894.28;3522613;28;20077;-76
2021/06/18 05:46:51;;;;;;;9.27;1.77;;;;;;;26.07;40.33;100894.28;3523409;28;20058;-75
2021/06/18 05:48:31;;;;;;;12.23;1.60;;;;;;;26.14;40.32;100898.66;3495189;28;20040;-76
2021/06/18 05:50:12;;;;;;;8.93;1.57;;;;;;;26.17;40.09;100888.00;3518335;28;20040;-76
2021/06/18 05:51:53;;;;;;;3.73;1.13;;;;;;;26.25;39.79;100890.22;3509496;28;20123;-78
2021/06/18 05:53:34;;;;;;;4.87;1.60;;;;;;;26.29;39.84;100891.31;3521573;28;20043;-76
2021/06/18 05:55:14;;;;;;;4.13;1.60;;;;;;;26.33;39.03;100894.34;3524194;28;20043;-77
2021/06/18 05:56:56;;;;;;;3.63;1.25;;;;;;;26.26;37.87;100888.31;3522950;28;20071;-77
2021/06/18 05:58:36;;;;;;;4.40;1.30;;;;;;;26.20;38.09;100897.59;3523890;28;20096;-78
2021/06/18 06:00:17;;;;;;;1.40;1.07;;;;;;;26.18;38.10;100894.31;3523483;28;20577;-76
2021/06/18 06:01:58;;;;;;;4.03;1.38;;;;;;;26.21;38.29;100893.78;3523989;28;20051;-77
2021/06/18 06:03:40;;;;;;;2.97;1.13;;;;;;;26.22;38.56;100889.94;3524220;28;20189;-77
2021/06/18 06:05:21;;;;;;;4.50;1.23;;;;;;;26.33;38.79;100892.44;3522328;28;20039;-78
2021/06/18 06:07:02;;;;;;;4.30;1.30;;;;;;;26.40;38.53;100897.63;3523757;28;20122;-76
2021/06/18 06:08:43;;;;;;;9.27;1.57;;;;;;;26.44;37.86;100898.75;3523852;28;20039;-77
2021/06/18 06:10:24;;;;;;;4.67;1.27;;;;;;;26.49;38.00;100895.22;3522499;28;20289;-77
2021/06/18 06:12:04;;;;;;;7.77;1.20;;;;;;;26.48;37.77;100897.09;3523939;28;20514;-76
2021/06/18 06:13:45;;;;;;;6.05;1.58;;;;;;;26.57;38.31;100896.63;3523955;28;20035;-76
2021/06/18 06:15:26;;;;;;;2.80;1.05;;;;;;;26.61;38.21;100895.78;3521691;28;20418;-77
2021/06/18 06:17:07;;;;;;;3.90;1.20;;;;;;;26.66;38.43;100894.97;3523939;28;20032;-75
2021/06/18 06:18:48;;;;;;;4.77;1.00;;;;;;;26.70;37.94;100896.06;3524099;28;20047;-78
2021/06/18 06:20:28;;;;;;;5.97;1.60;;;;;;;26.75;37.54;100893.34;3519622;28;20127;-77
2021/06/18 06:22:09;;;;;;;3.60;1.20;;;;;;;26.78;37.77;100895.53;3509568;28;20126;-76
2021/06/18 06:23:50;;;;;;;5.63;1.10;;;;;;;26.78;37.43;100887.31;3518765;28;20046;-76
2021/06/18 06:25:31;;;;;;;3.53;1.40;;;;;;;26.87;37.55;100891.13;3524026;28;20092;-76
2021/06/18 06:27:12;;;;;;;13.33;2.30;;;;;;;26.92;36.91;100893.88;3522951;28;20070;-76
2021/06/18 06:28:52;;;;;;;6.53;1.40;;;;;;;27.01;36.87;100885.94;3523870;28;20050;-77
2021/06/18 06:30:34;;;;;;;4.90;1.40;;;;;;;27.07;36.40;100889.50;3523255;28;20043;-76
2021/06/18 06:32:15;;;;;;;5.53;1.65;;;;;;;27.11;36.73;100885.13;3524190;28;20122;-75
2021/06/18 06:33:55;;;;;;;5.73;1.37;;;;;;;27.21;36.78;100893.34;3523839;28;20047;-77
2021/06/18 06:35:36;;;;;;;4.80;1.50;;;;;;;27.35;36.40;100894.41;3523410;28;20038;-76
2021/06/18 06:37:17;;;;;;;2.70;1.30;;;;;;;27.42;35.81;100891.38;3523800;28;20520;-76
2021/06/18 06:38:57;;;;;;;6.10;1.17;;;;;;;27.48;35.74;100890.25;3522940;28;20047;-74
2021/06/18 06:40:38;;;;;;;3.80;1.37;;;;;;;27.56;35.41;100889.69;3522275;28;20050;-76
2021/06/18 06:42:19;;;;;;;2.80;1.33;;;;;;;27.65;35.29;100889.94;3522502;28;20047;-76
2021/06/18 06:44:00;;;;;;;4.70;1.63;;;;;;;27.77;35.84;100893.16;3519963;28;20040;-77
2021/06/18 06:45:41;;;;;;;7.82;1.58;;;;;;;27.86;35.45;100887.16;3519596;28;20066;-75
2021/06/18 06:47:22;;;;;;;7.87;1.50;;;;;;;27.97;35.21;100891.47;3523246;28;20138;-76
2021/06/18 06:49:03;;;;;;;;;;;;;;;28.11;35.07;100888.94;3516714;28;20286;-77
2021/06/18 06:50:45;;;;;;;6.68;1.25;;;;;;;28.13;35.16;100884.81;3516517;28;20496;-79
2021/06/18 06:52:25;;;;;;;11.45;1.80;;;;;;;28.24;35.23;100886.41;3506669;28;20051;-75
2021/06/18 06:54:07;;;;;;;1.63;1.33;;;;;;;28.33;35.53;100883.88;3518548;28;20476;-77
2021/06/18 06:55:49;;;;;;;5.88;1.63;;;;;;;28.37;35.48;100890.44;3509269;28;20040;-74
2021/06/18 06:57:31;;;;;;;6.47;1.20;;;;;;;28.45;35.13;100889.88;3508266;28;20043;-75
2021/06/18 06:59:14;;;;;;;7.70;1.15;;;;;;;28.54;34.90;100894.75;3510306;28;21063;-75
2021/06/18 07:00:56;;;;;;;4.00;0.93;;;;;;;28.59;34.58;100895.53;3520259;28;20044;-76
2021/06/18 07:02:37;;;;;;;3.67;1.33;;;;;;;28.66;34.77;100890.53;3507907;28;20040;-74
2021/06/18 07:04:18;;;;;;;6.63;1.20;;;;;;;28.76;35.05;100894.28;3518917;28;20042;-78
2021/06/18 07:05:59;;;;;;;5.17;1.10;;;;;;;28.84;34.28;100900.00;3520769;28;20068;-76
2021/06/18 07:07:41;;;;;;;4.50;1.20;;;;;;;28.89;35.55;100885.41;3507543;28;20300;-76
2021/06/18 07:09:23;;;;;;;5.38;1.60;;;;;;;28.98;36.02;100894.66;3508318;28;20179;-75
2021/06/18 07:11:06;;;;;;;8.32;1.90;;;;;;;29.04;35.84;100892.66;3507940;28;20048;-75
2021/06/18 07:12:48;;;;;;;2.40;1.60;;;;;;;29.05;36.28;100894.34;3491567;28;20123;-76
2021/06/18 07:14:30;;;;;;;8.25;1.50;;;;;;;29.06;36.10;100891.31;3515514;28;20458;-76
2021/06/18 07:16:12;;;;;;;3.15;1.20;;;;;;;29.14;36.04;100890.69;3511195;28;20071;-75
2021/06/18 07:17:55;;;;;;;5.60;1.02;;;;;;;29.20;36.13;100890.63;3508411;28;20481;-75
2021/06/18 07:19:37;;;;;;;4.30;1.80;;;;;;;29.28;35.63;100890.03;3508874;28;20044;-74
2021/06/18 07:21:18;;;;;;;5.07;1.17;;;;;;;29.34;35.40;100897.91;3518318;28;20055;-74
2021/06/18 07:23:00;;;;;;;6.63;1.13;;;;;;;29.39;34.63;100898.97;3515079;28;20560;-75
2021/06/18 07:24:41;;;;;;;7.18;1.33;;;;;;;29.43;33.86;100898.09;3509260;28;20040;-75
2021/06/18 07:26:24;;;;;;;2.88;1.10;;;;;;;29.43;35.05;100894.50;3510930;28;20126;-75
2021/06/18 07:28:07;;;;;;;6.18;1.55;;;;;;;29.48;35.18;100892.53;3518846;28;20040;-74
2021/06/18 07:29:47;;;;;;;28.52;1.80;;;;;;;29.56;35.13;100886.41;3518187;28;20102;-75
2021/06/18 07:31:28;;;;;;;7.47;1.53;;;;;;;29.67;34.51;100878.06;3530595;28;20032;-75
2021/06/18 07:33:10;;;;;;;7.30;1.25;;;;;;;29.74;34.83;100881.25;3530729;28;20036;-75
2021/06/18 07:34:56;;;;;;;8.52;1.98;;;;;;;29.81;34.63;100884.47;3525757;27;20043;-75
2021/06/18 07:36:38;;;;;;;6.88;1.13;;;;;;;29.86;33.74;100891.84;3525455;28;21250;-75
2021/06/18 07:38:19;;;;;;;5.45;1.30;;;;;;;29.89;33.51;100889.31;3525456;28;20185;-76
2021/06/18 07:40:00;;;;;;;6.40;1.67;;;;;;;29.91;33.10;100895.34;3513138;27;21983;-73
2021/06/18 07:41:41;;;;;;;6.32;1.67;;;;;;;29.90;32.77;100896.47;3516891;28;20137;-73
2021/06/18 07:43:22;;;;;;;4.85;1.20;;;;;;;29.89;32.61;100886.56;3510285;28;20040;-73
2021/06/18 07:45:04;;;;;;;3.47;1.43;;;;;;;29.96;33.61;100887.03;3511039;28;20071;-75
2021/06/18 07:46:45;;;;;;;4.55;1.45;;;;;;;30.05;33.08;100884.44;3511692;28;20143;-74
2021/06/18 07:48:27;;;;;;;7.20;1.50;;;;;;;30.14;32.86;100879.09;3524521;28;20502;-75
2021/06/18 07:50:10;;;;;;;4.30;1.63;;;;;;;30.23;32.54;100874.56;3524656;28;20130;-75
2021/06/18 07:51:51;;;;;;;4.03;1.17;;;;;;;30.29;32.40;100873.41;3525803;28;20058;-75
2021/06/18 07:53:32;;;;;;;15.68;1.42;;;;;;;30.36;32.10;100878.50;3539654;27;20046;-77